Time;durP1;ratioP1;P1;durP2;ratioP2;P2;SDS_P1;SDS_P2;PMS_P1;PMS_P2;Temp;Humidity;BMP_temperature;BMP_pressure;BME280_temperature;BME280_humidity;BME280_pressure;Samples;Min_cycle;Max_cycle;Signal;HPM_P1;HPM_P2
2022/03/23 00:01:04;;;;;;;33.80;23.07;;;;;;;3.60;70.29;103313.41;5049527;28;20221;-73
2022/03/23 00:03:30;;;;;;;33.80;21.53;;;;;;;3.48;70.04;103324.97;5050706;28;20255;-73
2022/03/23 00:05:55;;;;;;;29.27;21.63;;;;;;;3.48;70.49;103320.81;5049344;28;20215;-73
2022/03/23 00:08:21;;;;;;;29.83;21.70;;;;;;;3.42;69.71;103324.44;5050457;28;20748;-74
2022/03/23 00:10:46;;;;;;;32.17;22.27;;;;;;;3.44;69.87;103320.41;5050743;28;20186;-73
2022/03/23 00:13:12;;;;;;;32.87;21.43;;;;;;;3.39;69.98;103325.06;5048986;28;20201;-73
2022/03/23 00:15:38;;;;;;;30.30;21.33;;;;;;;3.37;70.07;103313.94;5049075;28;20218;-73
2022/03/23 00:18:04;;;;;;;31.80;21.30;;;;;;;3.32;69.46;103314.28;5049340;28;20170;-73
2022/03/23 00:20:29;;;;;;;30.63;22.47;;;;;;;3.25;71.29;103322.06;5050762;28;20197;-73
2022/03/23 00:22:54;;;;;;;29.17;20.97;;;;;;;3.31;69.95;103320.97;5050697;28;20598;-73
2022/03/23 00:25:20;;;;;;;30.03;21.63;;;;;;;3.24;70.25;103311.09;5049124;28;20205;-73
2022/03/23 00:27:46;;;;;;;30.43;21.53;;;;;;;3.20;70.49;103321.69;5039697;28;20695;-73
2022/03/23 00:30:12;;;;;;;31.67;21.50;;;;;;;3.20;70.93;103324.22;5029119;28;20278;-73
2022/03/23 00:32:37;;;;;;;31.53;22.03;;;;;;;3.12;70.92;103321.78;5042182;28;20562;-74
2022/03/23 00:35:03;;;;;;;32.07;21.90;;;;;;;3.03;71.24;103320.97;5048879;28;20209;-73
2022/03/23 00:37:29;;;;;;;31.33;22.27;;;;;;;3.05;70.96;103317.81;5050103;28;20181;-73
2022/03/23 00:39:54;;;;;;;29.20;21.40;;;;;;;2.98;71.25;103315.47;5048548;28;20181;-73
2022/03/23 00:42:20;;;;;;;29.93;20.13;;;;;;;2.93;71.08;103316.69;5031171;28;20194;-73
2022/03/23 00:44:45;;;;;;;29.80;21.00;;;;;;;2.93;70.49;103316.69;5036617;28;20703;-73
2022/03/23 00:47:11;;;;;;;31.00;21.60;;;;;;;2.92;70.78;103317.47;5068168;28;20213;-73
2022/03/23 00:49:37;;;;;;;30.13;20.50;;;;;;;2.85;71.26;103316.78;5046157;28;20191;-73
2022/03/23 00:52:05;;;;;;;29.33;20.87;;;;;;;2.75;71.39;103319.25;5028710;28;20289;-73
2022/03/23 00:54:34;;;;;;;31.67;21.17;;;;;;;2.76;71.19;103309.22;5029859;28;20201;-73
2022/03/23 00:57:01;;;;;;;31.80;22.17;;;;;;;2.77;71.49;103312.66;5029727;28;20730;-73
2022/03/23 00:59:27;;;;;;;31.20;21.97;;;;;;;2.67;71.61;103321.06;5028466;28;20277;-73
2022/03/23 01:01:53;;;;;;;28.43;20.53;;;;;;;2.63;71.63;103311.44;5012010;28;20209;-73
2022/03/23 01:04:18;;;;;;;30.27;20.33;;;;;;;2.59;71.34;103309.38;5012091;28;20190;-73
2022/03/23 01:06:44;;;;;;;28.83;21.50;;;;;;;2.69;71.50;103314.50;5028207;28;20285;-73
2022/03/23 01:09:09;;;;;;;27.47;20.17;;;;;;;2.60;71.77;103313.69;5029717;28;20239;-73
2022/03/23 01:11:36;;;;;;;35.20;20.93;;;;;;;2.52;72.14;103311.22;5029749;28;20561;-73
2022/03/23 01:14:02;;;;;;;27.40;21.03;;;;;;;2.47;72.52;103312.41;5028224;28;20702;-73
2022/03/23 01:16:28;;;;;;;33.37;21.83;;;;;;;2.44;72.44;103307.97;5029330;28;20236;-73
2022/03/23 01:18:53;;;;;;;30.40;20.77;;;;;;;2.44;72.31;103310.50;5044868;28;20190;-73
2022/03/23 01:21:18;;;;;;;31.60;21.33;;;;;;;2.43;72.77;103312.91;5044792;28;20249;-73
2022/03/23 01:23:45;;;;;;;29.93;20.73;;;;;;;2.44;71.83;103304.56;5028418;28;20240;-74
2022/03/23 01:26:10;;;;;;;30.77;21.10;;;;;;;2.40;71.97;103305.03;5028068;28;20293;-73
2022/03/23 01:28:36;;;;;;;30.20;21.87;;;;;;;2.35;73.12;103307.13;5011648;28;20860;-73
2022/03/23 01:31:02;;;;;;;31.00;21.03;;;;;;;2.31;73.18;103302.56;5044988;28;20212;-73
2022/03/23 01:33:27;;;;;;;29.97;21.37;;;;;;;2.27;72.73;103305.56;5028464;28;20182;-73
2022/03/23 01:35:52;;;;;;;30.57;20.63;;;;;;;2.31;73.67;103299.13;5045292;28;20210;-73
2022/03/23 01:38:18;;;;;;;31.30;22.43;;;;;;;2.30;73.54;103297.38;5049407;28;20198;-73
2022/03/23 01:40:47;;;;;;;28.47;19.97;;;;;;;2.31;74.17;103295.00;5052295;28;20703;-73
2022/03/23 01:43:16;;;;;;;31.20;21.70;;;;;;;2.32;73.83;103294.22;5053307;28;20215;-73
2022/03/23 01:45:41;;;;;;;29.77;20.87;;;;;;;2.26;73.71;103305.41;5035083;28;20205;-73
2022/03/23 01:48:06;;;;;;;29.53;20.67;;;;;;;2.19;73.90;103295.47;5067222;28;20204;-73
2022/03/23 01:50:32;;;;;;;29.63;20.40;;;;;;;2.16;73.65;103307.84;5073342;28;20214;-73
2022/03/23 01:52:57;;;;;;;31.00;20.90;;;;;;;2.03;74.36;103294.84;5072110;28;20276;-73
2022/03/23 01:55:23;;;;;;;27.57;19.63;;;;;;;2.08;74.77;103299.56;5071806;28;20623;-73
2022/03/23 01:57:51;;;;;;;29.67;20.77;;;;;;;2.10;73.62;103300.59;5071602;28;20177;-73
2022/03/23 02:00:18;;;;;;;30.77;20.10;;;;;;;2.07;74.60;103286.78;5073021;28;20188;-73
2022/03/23 02:02:46;;;;;;;32.43;20.27;;;;;;;1.97;74.44;103297.66;5071780;28;20256;-73
2022/03/23 02:05:14;;;;;;;29.90;20.13;;;;;;;1.89;74.95;103290.13;5059691;28;20300;-73
2022/03/23 02:07:46;;;;;;;28.80;20.43;;;;;;;1.93;75.57;103294.72;5051303;28;20201;-73
2022/03/23 02:10:13;;;;;;;28.10;21.13;;;;;;;1.93;74.86;103279.56;5051745;28;20655;-73
2022/03/23 02:12:50;;;;;;;28.27;19.93;;;;;;;1.91;74.46;103288.63;5051777;28;20189;-74
2022/03/23 02:15:17;;;;;;;27.23;19.50;;;;;;;1.87;74.43;103287.47;5051399;28;20209;-73
2022/03/23 02:17:44;;;;;;;27.13;19.47;;;;;;;1.83;75.10;103289.56;5051339;28;20201;-73
2022/03/23 02:20:11;;;;;;;28.07;20.97;;;;;;;1.88;75.16;103286.72;5051393;28;20191;-73
2022/03/23 02:22:37;;;;;;;30.70;20.80;;;;;;;1.89;75.19;103287.63;5051350;28;20442;-73
2022/03/23 02:25:06;;;;;;;29.83;20.57;;;;;;;1.82;75.79;103293.72;5052748;28;20691;-74
2022/03/23 02:27:32;;;;;;;29.93;20.80;;;;;;;1.74;76.25;103287.06;5052916;28;20678;-73
2022/03/23 02:29:58;;;;;;;30.50;21.53;;;;;;;1.77;75.96;103279.78;5052751;28;20205;-73
2022/03/23 02:32:24;;;;;;;27.77;20.37;;;;;;;1.77;76.09;103286.47;5034535;28;20670;-73
2022/03/23 02:34:49;;;;;;;28.37;20.73;;;;;;;1.73;76.16;103281.88;5051708;28;20682;-73
2022/03/23 02:37:16;;;;;;;28.33;20.00;;;;;;;1.66;75.44;103287.97;5039755;28;20463;-73
2022/03/23 02:39:42;;;;;;;30.63;21.27;;;;;;;1.65;76.06;103283.69;5037442;28;20236;-74
2022/03/23 02:42:08;;;;;;;29.80;21.67;;;;;;;1.61;76.78;103286.66;5052442;28;20647;-74
2022/03/23 02:44:33;;;;;;;28.57;20.93;;;;;;;1.59;76.59;103280.59;5034261;28;20186;-74
2022/03/23 02:46:58;;;;;;;29.97;20.67;;;;;;;1.59;76.49;103285.63;5065182;28;20281;-73
2022/03/23 02:49:24;;;;;;;31.10;21.53;;;;;;;1.57;76.97;103288.75;5071937;28;20189;-74
2022/03/23 02:51:50;;;;;;;27.70;20.13;;;;;;;1.49;76.36;103289.66;5072424;28;20204;-74
2022/03/23 03:03:06;;;;;;;29.70;20.70;;;;;;;1.47;76.31;103292.03;5072118;28;20796;-73
2022/03/23 03:05:32;;;;;;;29.23;20.40;;;;;;;1.48;77.85;103293.84;5070741;28;20451;-73
2022/03/23 03:10:41;;;;;;;34.07;22.97;;;;;;;1.48;79.45;103306.47;5070522;28;20181;-73
2022/03/23 03:13:07;;;;;;;30.33;21.70;;;;;;;1.57;79.54;103292.19;5071805;28;20950;-73
2022/03/23 03:15:34;;;;;;;27.97;20.23;;;;;;;1.62;78.51;103295.13;5071735;28;20205;-73
2022/03/23 03:17:59;;;;;;;32.10;21.90;;;;;;;1.51;78.56;103293.25;5056795;28;20209;-73
2022/03/23 03:20:25;;;;;;;27.50;20.63;;;;;;;1.49;78.72;103302.28;5059648;28;20431;-73
2022/03/23 03:22:52;;;;;;;32.63;22.00;;;;;;;1.40;78.02;103297.28;5071610;28;20887;-73
2022/03/23 03:25:18;;;;;;;29.63;21.60;;;;;;;1.31;78.46;103305.59;5071555;28;20282;-74
2022/03/23 03:27:44;;;;;;;31.07;21.93;;;;;;;1.37;77.57;103303.66;5071177;28;20215;-73
2022/03/23 03:30:14;;;;;;;31.77;22.00;;;;;;;1.40;78.78;103304.84;5070289;28;20428;-73
2022/03/23 03:32:39;;;;;;;37.33;23.37;;;;;;;1.37;78.93;103304.53;5055819;28;20189;-73
2022/03/23 03:35:05;;;;;;;31.30;22.83;;;;;;;1.35;78.46;103306.03;5031333;28;20441;-73
2022/03/23 03:37:31;;;;;;;34.27;22.87;;;;;;;1.21;79.09;103308.88;5031308;28;20695;-73
2022/03/23 03:39:57;;;;;;;31.23;22.23;;;;;;;1.20;78.84;103299.53;5049180;28;20436;-73
2022/03/23 03:42:22;;;;;;;33.17;23.03;;;;;;;1.21;78.56;103305.44;5049483;28;20194;-73
2022/03/23 03:44:50;;;;;;;31.87;22.03;;;;;;;1.18;78.95;103300.09;5050748;28;20212;-73
2022/03/23 03:47:16;;;;;;;32.03;22.80;;;;;;;1.12;79.06;103300.44;5071241;28;20212;-73
2022/03/23 03:49:42;;;;;;;31.27;21.83;;;;;;;1.06;78.64;103293.91;5066450;28;20443;-73
2022/03/23 03:52:07;;;;;;;32.90;22.93;;;;;;;1.00;78.85;103296.72;5049629;28;20182;-73
2022/03/23 03:54:32;;;;;;;28.27;21.33;;;;;;;0.98;79.20;103299.84;5049555;28;20200;-73
2022/03/23 03:56:58;;;;;;;31.60;22.37;;;;;;;1.00;78.19;103301.75;5042213;28;20190;-73
2022/03/23 03:59:23;;;;;;;31.80;22.33;;;;;;;0.96;78.24;103308.91;5043478;28;20189;-74
2022/03/23 04:01:49;;;;;;;39.43;24.53;;;;;;;0.98;77.75;103305.78;5050002;28;20213;-73
2022/03/23 04:04:15;;;;;;;35.97;23.50;;;;;;;0.89;78.56;103312.44;5050415;28;20200;-74
2022/03/23 04:06:40;;;;;;;33.77;23.77;;;;;;;0.84;78.59;103302.66;5031120;28;20461;-73
2022/03/23 04:09:06;;;;;;;31.47;22.63;;;;;;;0.84;78.66;103315.25;5054152;28;20238;-73
2022/03/23 04:11:31;;;;;;;33.97;23.53;;;;;;;0.86;78.45;103316.31;5070289;28;20185;-73
2022/03/23 04:13:57;;;;;;;35.97;23.13;;;;;;;0.83;78.88;103309.31;5055853;28;20213;-73
2022/03/23 04:16:22;;;;;;;33.10;23.77;;;;;;;0.77;78.81;103308.72;5049238;28;20210;-73
2022/03/23 04:18:47;;;;;;;33.00;24.33;;;;;;;0.71;79.06;103307.22;5050328;28;20243;-73
2022/03/23 04:21:13;;;;;;;32.03;22.57;;;;;;;0.76;79.15;103299.38;5032381;28;20218;-73
2022/03/23 04:23:39;;;;;;;32.60;23.43;;;;;;;0.69;78.46;103307.06;5045238;28;20237;-73
2022/03/23 04:26:04;;;;;;;30.93;22.20;;;;;;;0.68;77.80;103306.97;5046628;28;20213;-73
2022/03/23 04:28:31;;;;;;;34.30;23.87;;;;;;;0.67;78.63;103306.06;5048985;28;20463;-73
2022/03/23 04:30:56;;;;;;;35.63;24.67;;;;;;;0.66;78.06;103300.84;5042380;28;20212;-73
2022/03/23 04:33:21;;;;;;;34.80;23.30;;;;;;;0.61;77.96;103307.06;5033920;28;20825;-73
2022/03/23 04:35:47;;;;;;;33.83;23.77;;;;;;;0.59;78.14;103311.97;5032176;28;20308;-73
2022/03/23 04:38:12;;;;;;;33.47;23.80;;;;;;;0.63;79.10;103310.66;5049945;28;20178;-73
2022/03/23 04:40:37;;;;;;;33.53;23.90;;;;;;;0.67;79.93;103311.09;5043362;28;20228;-73
2022/03/23 04:43:03;;;;;;;31.63;21.90;;;;;;;0.60;79.89;103308.72;5028711;28;20198;-73
2022/03/23 04:45:28;;;;;;;32.33;23.07;;;;;;;0.52;79.59;103308.69;5038135;28;20733;-73
2022/03/23 04:47:54;;;;;;;34.00;23.57;;;;;;;0.55;79.42;103309.88;5049999;28;20214;-73
2022/03/23 04:50:20;;;;;;;32.13;22.13;;;;;;;0.59;79.91;103313.63;5038417;28;20206;-73
2022/03/23 04:52:47;;;;;;;33.67;23.70;;;;;;;0.47;79.70;103320.84;5037365;28;20455;-73
2022/03/23 04:55:14;;;;;;;31.93;23.30;;;;;;;0.41;79.13;103321.88;5046014;28;20244;-73
2022/03/23 04:57:40;;;;;;;36.00;23.90;;;;;;;0.52;80.29;103316.25;5048943;28;20455;-73
2022/03/23 05:00:10;;;;;;;35.03;25.73;;;;;;;0.56;81.91;103321.75;5030520;28;20450;-73
2022/03/23 05:02:38;;;;;;;35.00;24.67;;;;;;;0.53;80.97;103321.44;5033410;28;20193;-73
2022/03/23 05:05:04;;;;;;;34.30;23.93;;;;;;;0.59;81.48;103319.53;5049749;28;20482;-73
2022/03/23 05:07:30;;;;;;;34.37;24.27;;;;;;;0.56;80.63;103321.75;5047066;28;20496;-73
2022/03/23 05:09:55;;;;;;;33.87;24.57;;;;;;;0.54;80.02;103318.19;5034489;28;20854;-73
2022/03/23 05:12:21;;;;;;;33.53;24.97;;;;;;;0.50;79.45;103323.66;5049381;28;20194;-73
2022/03/23 05:14:46;;;;;;;34.67;23.77;;;;;;;0.49;79.36;103321.00;5048076;28;20508;-73
2022/03/23 05:17:11;;;;;;;34.97;24.00;;;;;;;0.47;79.48;103323.38;5048673;28;20194;-73
2022/03/23 05:19:37;;;;;;;36.10;25.07;;;;;;;0.43;79.65;103330.47;5049770;28;20228;-73
2022/03/23 05:22:03;;;;;;;35.47;24.50;;;;;;;0.41;79.37;103322.75;5049752;28;20181;-73
2022/03/23 05:24:29;;;;;;;33.87;23.43;;;;;;;0.39;79.61;103329.28;5031161;28;20200;-73
2022/03/23 05:26:54;;;;;;;33.87;23.53;;;;;;;0.38;79.97;103326.59;5029418;28;20519;-73
2022/03/23 05:29:20;;;;;;;37.53;24.50;;;;;;;0.39;80.40;103329.28;5029416;28;20248;-73
2022/03/23 05:31:45;;;;;;;34.50;24.17;;;;;;;0.44;79.50;103330.63;5029391;28;20182;-73
2022/03/23 05:34:10;;;;;;;38.43;25.37;;;;;;;0.45;80.34;103329.88;5040770;28;20197;-73
2022/03/23 05:36:36;;;;;;;39.97;25.90;;;;;;;0.47;79.97;103329.28;5048315;28;20245;-73
2022/03/23 05:39:01;;;;;;;36.07;25.03;;;;;;;0.51;79.32;103329.59;5048037;28;20216;-73
2022/03/23 05:41:27;;;;;;;38.17;26.87;;;;;;;0.49;79.93;103336.13;5042910;28;20198;-73
2022/03/23 05:43:53;;;;;;;40.40;25.73;;;;;;;0.54;79.89;103338.34;5029347;28;20205;-73
2022/03/23 05:46:18;;;;;;;38.70;24.87;;;;;;;0.59;79.59;103338.81;5057319;28;20613;-73
2022/03/23 05:48:44;;;;;;;38.23;25.63;;;;;;;0.64;80.59;103325.91;5041901;28;20304;-73
2022/03/23 05:51:10;;;;;;;41.30;26.67;;;;;;;0.68;80.04;103329.63;5045580;28;20277;-73
2022/03/23 05:53:36;;;;;;;36.63;25.27;;;;;;;0.71;80.16;103325.78;5033615;28;20582;-73
2022/03/23 05:56:04;;;;;;;36.20;24.90;;;;;;;0.79;80.01;103334.09;5048028;28;20280;-73
2022/03/23 05:58:30;;;;;;;34.63;24.40;;;;;;;0.87;79.47;103331.56;5048462;28;20537;-73
2022/03/23 06:00:56;;;;;;;35.70;24.53;;;;;;;0.97;78.94;103328.31;5048904;28;20529;-73
2022/03/23 06:03:21;;;;;;;37.07;25.33;;;;;;;1.07;78.94;103330.97;5048557;28;20737;-73
2022/03/23 06:05:46;;;;;;;37.53;25.70;;;;;;;1.17;79.36;103328.59;5049031;28;20201;-73
2022/03/23 06:08:12;;;;;;;37.20;26.07;;;;;;;1.26;80.82;103329.50;5041594;28;20209;-73
2022/03/23 06:10:37;;;;;;;37.50;25.27;;;;;;;1.36;79.93;103328.00;5062722;28;20700;-74
2022/03/23 06:13:02;;;;;;;48.20;32.10;;;;;;;1.50;79.76;103327.69;5069079;28;20569;-73
2022/03/23 06:15:28;;;;;;;48.43;31.20;;;;;;;1.61;78.91;103334.63;5057922;28;20259;-73
2022/03/23 06:17:53;;;;;;;45.50;29.80;;;;;;;1.70;79.32;103327.91;5048871;28;20185;-73
2022/03/23 06:20:18;;;;;;;46.23;30.80;;;;;;;1.81;79.22;103328.94;5049060;28;20270;-73
2022/03/23 06:22:44;;;;;;;41.27;26.10;;;;;;;1.89;79.40;103333.94;5048274;28;20214;-73
2022/03/23 06:25:10;;;;;;;34.37;24.97;;;;;;;2.13;79.18;103335.34;5033972;28;20218;-73
2022/03/23 06:27:35;;;;;;;36.87;25.57;;;;;;;2.27;79.28;103343.47;5038826;28;20265;-73
2022/03/23 06:30:01;;;;;;;36.00;24.70;;;;;;;2.34;78.82;103340.75;5065420;28;20201;-73
2022/03/23 06:32:27;;;;;;;33.43;23.90;;;;;;;2.53;77.99;103341.66;5052750;28;20212;-73
2022/03/23 06:34:53;;;;;;;35.60;24.63;;;;;;;2.72;79.82;103342.59;5052508;28;20233;-73
2022/03/23 06:37:18;;;;;;;32.67;22.83;;;;;;;2.90;79.78;103346.78;5052426;28;20228;-73
2022/03/23 06:39:43;;;;;;;33.50;24.27;;;;;;;3.00;80.00;103344.34;5052355;28;20192;-73
2022/03/23 06:42:09;;;;;;;34.90;23.47;;;;;;;3.15;79.64;103335.56;5052495;28;20582;-73
2022/03/23 06:44:34;;;;;;;32.70;23.67;;;;;;;3.30;79.62;103339.44;5054931;28;20209;-74
2022/03/23 06:46:59;;;;;;;32.10;22.53;;;;;;;3.51;78.33;103346.41;5057864;28;20198;-75
2022/03/23 06:49:25;;;;;;;32.73;23.97;;;;;;;3.65;78.25;103342.53;5051084;28;20536;-74
2022/03/23 06:51:50;;;;;;;34.73;25.23;;;;;;;3.74;79.34;103349.31;5052290;28;20268;-73
2022/03/23 06:54:17;;;;;;;33.83;24.47;;;;;;;3.88;79.09;103350.47;5052199;28;20186;-73
2022/03/23 06:56:42;;;;;;;34.90;24.77;;;;;;;4.08;77.89;103353.97;5050939;28;20260;-74
2022/03/23 06:59:08;;;;;;;35.60;25.73;;;;;;;4.25;77.64;103350.31;5052152;28;20177;-74
2022/03/23 07:01:33;;;;;;;36.13;25.20;;;;;;;4.36;77.47;103349.56;5050720;28;20269;-73
2022/03/23 07:03:58;;;;;;;36.00;24.63;;;;;;;4.51;76.53;103350.88;5050860;28;20202;-74
2022/03/23 07:06:24;;;;;;;35.83;25.37;;;;;;;4.79;75.31;103355.81;5050507;28;20217;-74
2022/03/23 07:11:33;;;;;;;32.03;24.47;;;;;;;5.37;74.36;103356.34;5051922;28;20178;-74
2022/03/23 07:13:58;;;;;;;37.77;25.53;;;;;;;5.32;73.18;103352.56;5052078;28;20196;-74
2022/03/23 07:16:24;;;;;;;34.93;25.23;;;;;;;5.46;72.86;103352.91;5051653;28;20705;-74
2022/03/23 07:18:49;;;;;;;33.93;25.40;;;;;;;5.83;71.30;103355.09;5051758;28;20182;-73
2022/03/23 07:21:16;;;;;;;32.87;24.73;;;;;;;5.82;71.70;103358.41;5051679;28;20180;-73
2022/03/23 07:23:41;;;;;;;33.57;24.87;;;;;;;5.92;70.54;103353.28;5033902;28;20197;-74
2022/03/23 07:26:06;;;;;;;33.93;25.43;;;;;;;6.12;70.08;103352.28;5035056;28;20669;-75
2022/03/23 07:28:32;;;;;;;37.47;26.03;;;;;;;6.29;69.87;103357.00;5031632;28;20646;-75
2022/03/23 07:30:58;;;;;;;33.80;25.67;;;;;;;6.49;68.82;103344.16;5031726;28;20231;-74
2022/03/23 07:33:23;;;;;;;32.53;25.40;;;;;;;6.58;68.89;103349.94;5051239;28;20186;-75
2022/03/23 07:35:48;;;;;;;38.80;25.20;;;;;;;6.83;68.08;103354.44;5050470;28;20201;-75
2022/03/23 07:38:14;;;;;;;33.00;25.33;;;;;;;7.01;67.67;103353.22;5050197;28;20189;-75
2022/03/23 07:40:41;;;;;;;31.47;23.83;;;;;;;7.28;66.95;103355.25;5051515;28;20277;-76
2022/03/23 07:43:07;;;;;;;27.57;23.67;;;;;;;7.70;65.80;103349.81;5051689;28;20746;-74
2022/03/23 07:45:32;;;;;;;29.90;24.03;;;;;;;7.93;65.37;103360.84;5035744;28;20699;-75
2022/03/23 07:47:58;;;;;;;31.27;24.70;;;;;;;8.18;64.39;103348.13;5055712;28;20225;-76
2022/03/23 07:50:23;;;;;;;31.77;24.57;;;;;;;8.32;63.94;103350.88;5051039;28;20182;-75
2022/03/23 07:52:49;;;;;;;32.53;24.07;;;;;;;8.60;62.73;103353.63;5044024;28;20294;-75
2022/03/23 07:55:15;;;;;;;31.00;24.13;;;;;;;8.90;61.98;103346.34;5029852;28;20209;-75
2022/03/23 07:57:40;;;;;;;32.07;25.40;;;;;;;9.14;61.53;103352.19;5030651;28;20187;-75
2022/03/23 08:00:06;;;;;;;29.53;23.63;;;;;;;9.54;59.83;103343.75;5031005;28;20195;-76
2022/03/23 08:02:38;;;;;;;30.77;24.27;;;;;;;9.90;58.50;103349.50;5045805;28;20263;-76
2022/03/23 08:05:04;;;;;;;35.13;25.03;;;;;;;9.97;58.58;103346.53;5037891;28;20297;-75
2022/03/23 08:07:30;;;;;;;30.83;23.60;;;;;;;10.25;57.54;103351.69;5044685;28;20226;-75
2022/03/23 08:09:55;;;;;;;33.53;24.47;;;;;;;10.19;56.77;103348.78;5035452;28;20244;-74
2022/03/23 08:12:21;;;;;;;31.07;24.23;;;;;;;10.51;56.59;103347.34;5030931;28;20210;-74
2022/03/23 08:14:46;;;;;;;30.37;23.67;;;;;;;10.69;55.01;103347.56;5030584;28;20210;-74
2022/03/23 08:17:12;;;;;;;30.87;23.37;;;;;;;11.12;54.46;103349.25;5051410;28;20308;-74
2022/03/23 08:19:38;;;;;;;31.40;23.93;;;;;;;11.36;53.23;103342.94;5064770;28;20192;-74
2022/03/23 08:22:03;;;;;;;27.70;22.70;;;;;;;11.71;51.56;103344.13;5070163;28;20185;-75
2022/03/23 08:24:29;;;;;;;31.70;24.03;;;;;;;11.74;51.77;103333.16;5070271;28;20962;-75
2022/03/23 08:26:54;;;;;;;27.27;24.20;;;;;;;11.77;51.02;103339.34;5050333;28;20700;-75
2022/03/23 08:29:19;;;;;;;28.53;23.57;;;;;;;11.99;49.98;103347.38;5043488;28;20298;-75
2022/03/23 08:31:45;;;;;;;28.27;24.17;;;;;;;12.28;49.09;103339.56;5036158;28;20269;-75
2022/03/23 08:34:10;;;;;;;28.53;24.10;;;;;;;12.45;49.09;103337.88;5028965;28;20271;-74
2022/03/23 08:36:38;;;;;;;27.83;23.43;;;;;;;12.83;48.75;103335.56;5029810;28;20213;-74
2022/03/23 08:39:04;;;;;;;26.43;21.40;;;;;;;13.08;45.46;103328.25;5030240;28;20186;-75
2022/03/23 08:41:29;;;;;;;29.43;21.93;;;;;;;13.51;44.65;103333.81;5030249;28;20629;-75
2022/03/23 08:43:54;;;;;;;27.37;21.77;;;;;;;13.34;43.56;103329.53;5030650;28;20197;-74
2022/03/23 08:46:20;;;;;;;27.20;23.20;;;;;;;13.96;44.98;103330.78;5040551;28;20316;-75
2022/03/23 08:48:45;;;;;;;24.93;21.27;;;;;;;14.27;43.26;103331.41;5049571;28;20752;-75
2022/03/23 08:51:11;;;;;;;27.93;21.67;;;;;;;14.56;42.14;103331.84;5049978;28;20201;-75
2022/03/23 08:53:38;;;;;;;22.83;19.90;;;;;;;14.89;42.73;103332.38;5048720;28;20193;-75
2022/03/23 08:56:04;;;;;;;26.87;22.23;;;;;;;15.33;42.37;103325.63;5050004;28;20282;-75
2022/03/23 08:58:30;;;;;;;28.83;22.47;;;;;;;15.43;43.81;103321.75;5049706;28;20187;-75
2022/03/23 09:00:55;;;;;;;30.33;23.10;;;;;;;15.04;43.53;103338.16;5049626;28;20189;-75
2022/03/23 09:03:20;;;;;;;29.57;22.73;;;;;;;15.64;43.09;103325.16;5049752;28;20193;-75
2022/03/23 09:05:46;;;;;;;25.20;22.50;;;;;;;15.58;41.85;103328.41;5049000;28;20209;-74
2022/03/23 09:08:11;;;;;;;25.57;22.73;;;;;;;16.02;42.25;103323.19;5047557;28;20309;-75
2022/03/23 09:10:37;;;;;;;27.33;22.63;;;;;;;16.37;40.93;103321.91;5048266;28;20189;-74
2022/03/23 09:13:03;;;;;;;27.27;22.23;;;;;;;16.72;40.30;103321.47;5046789;28;20190;-75
2022/03/23 09:15:28;;;;;;;25.00;21.83;;;;;;;16.77;35.25;103320.75;5048194;28;20581;-75
2022/03/23 09:18:01;;;;;;;27.33;21.53;;;;;;;17.45;35.07;103323.06;5049247;28;20719;-75
2022/03/23 09:20:28;;;;;;;23.83;21.30;;;;;;;17.58;35.53;103326.06;5048949;28;20197;-74
2022/03/23 09:22:54;;;;;;;24.93;22.20;;;;;;;17.36;33.40;103322.75;5049356;28;20235;-75
2022/03/23 09:25:22;;;;;;;23.43;20.90;;;;;;;17.92;31.43;103318.44;5049232;28;20236;-75
2022/03/23 09:27:48;;;;;;;23.90;20.63;;;;;;;17.86;31.70;103323.47;5047711;28;20213;-75
2022/03/23 09:30:14;;;;;;;22.70;20.27;;;;;;;19.01;30.20;103317.13;5045938;28;20600;-76
2022/03/23 09:32:41;;;;;;;24.88;20.63;;;;;;;19.34;29.75;103310.22;5032103;28;20186;-76
2022/03/23 09:35:07;;;;;;;20.70;18.70;;;;;;;23.17;24.64;103300.59;5027829;28;20568;-76
2022/03/23 09:37:48;;;;;;;21.70;19.70;;;;;;;26.90;21.81;103289.94;5028076;28;20179;-76
2022/03/23 09:40:24;;;;;;;21.67;19.58;;;;;;;27.90;19.49;103293.28;5043925;28;20249;-76
2022/03/23 09:42:50;;;;;;;21.02;18.98;;;;;;;28.90;18.98;103287.38;5047842;28;20773;-76
2022/03/23 09:45:50;;;;;;;22.55;20.15;;;;;;;30.51;17.77;103278.81;5021811;28;20755;-76
2022/03/23 09:48:12;;;;;;;20.90;18.90;;;;;;;30.95;15.96;103278.56;5055066;28;20297;-76
2022/03/23 09:50:39;;;;;;;18.55;16.95;;;;;;;30.97;15.69;103282.91;5067610;28;20643;-76
2022/03/23 09:53:06;;;;;;;19.58;17.70;;;;;;;31.45;15.28;103276.31;5059170;28;20193;-76
2022/03/23 09:55:32;;;;;;;20.23;18.25;;;;;;;31.46;15.45;103278.06;5049042;28;20206;-76
2022/03/23 09:57:59;;;;;;;19.17;17.58;;;;;;;32.31;14.77;103271.94;5048808;28;20181;-76
2022/03/23 10:00:29;;;;;;;19.33;17.63;;;;;;;32.46;15.01;103271.41;5032647;28;20217;-76
2022/03/23 10:02:57;;;;;;;18.35;16.75;;;;;;;33.87;13.59;103273.47;5033156;28;20196;-77
2022/03/23 10:05:45;;;;;;;19.77;17.98;;;;;;;33.50;13.95;103268.66;5031858;28;20245;-76
2022/03/23 10:08:48;;;;;;;18.73;17.13;;;;;;;35.04;13.78;103264.09;5033116;28;20194;-77
2022/03/23 10:12:01;;;;;;;18.13;16.52;;;;;;;34.94;13.24;103267.25;5033122;28;20182;-77
2022/03/23 10:15:07;;;;;;;17.15;15.55;;;;;;;34.84;12.88;103272.09;5050782;28;20201;-76
2022/03/23 10:17:44;;;;;;;18.52;16.80;;;;;;;35.39;12.58;103258.09;5052350;28;20227;-77
2022/03/23 10:20:14;;;;;;;19.10;17.17;;;;;;;35.70;12.54;103254.84;5051387;28;20193;-77
2022/03/23 10:22:47;;;;;;;19.23;17.42;;;;;;;35.31;12.76;103260.22;5050777;28;20550;-76
2022/03/23 10:25:13;;;;;;;17.90;16.48;;;;;;;35.35;11.89;103259.16;5052617;28;20217;-77
2022/03/23 10:27:38;;;;;;;16.60;15.30;;;;;;;36.78;11.85;103260.16;5052389;28;20177;-77
2022/03/23 10:30:04;;;;;;;17.83;16.08;;;;;;;36.69;11.10;103263.31;5051282;28;20297;-77
2022/03/23 10:32:36;;;;;;;17.52;16.00;;;;;;;32.80;13.87;103261.47;5052455;28;20190;-76
2022/03/23 10:35:04;;;;;;;18.45;16.75;;;;;;;35.86;11.86;103250.56;5042182;28;20232;-76
2022/03/23 10:37:33;;;;;;;18.73;17.17;;;;;;;35.78;11.74;103253.59;5032021;28;20715;-76
2022/03/23 10:40:01;;;;;;;18.05;16.42;;;;;;;37.01;10.76;103251.81;5032367;28;20186;-77
2022/03/23 10:42:30;;;;;;;17.48;16.05;;;;;;;37.11;11.15;103247.72;5032471;28;20191;-77
2022/03/23 10:45:08;;;;;;;17.52;15.98;;;;;;;35.97;11.47;103243.75;5025502;28;20267;-77
2022/03/23 10:47:35;;;;;;;21.95;19.73;;;;;;;36.98;11.27;103247.50;5047332;28;20269;-77
2022/03/23 10:50:19;;;;;;;18.83;17.23;;;;;;;37.36;10.77;103244.59;5045060;28;20197;-76
2022/03/23 10:53:05;;;;;;;19.65;18.05;;;;;;;36.40;11.48;103240.75;5050764;28;20190;-76
2022/03/23 10:55:35;;;;;;;20.27;18.48;;;;;;;37.77;11.26;103238.72;5032992;28;20210;-76
2022/03/23 10:58:00;;;;;;;22.15;20.00;;;;;;;37.91;11.78;103232.56;5045391;28;20205;-76
2022/03/23 11:00:32;;;;;;;20.65;18.75;;;;;;;36.43;11.23;103237.88;5050581;28;20190;-75
2022/03/23 11:02:59;;;;;;;20.50;18.30;;;;;;;37.24;11.22;103234.59;5051858;28;20189;-75
2022/03/23 11:06:00;;;;;;;20.95;18.85;;;;;;;37.27;11.93;103234.41;5051755;28;20200;-75
2022/03/23 11:08:26;;;;;;;21.25;18.98;;;;;;;36.32;12.29;103229.56;5028973;28;20194;-75
2022/03/23 11:16:36;;;;;;;22.83;19.75;;;;;;;29.18;16.51;103241.13;5032611;28;20210;-75
2022/03/23 11:19:10;;;;;;;24.70;20.48;;;;;;;28.79;17.32;103231.28;5039578;28;20215;-75
2022/03/23 11:21:57;;;;;;;22.30;19.98;;;;;;;28.50;18.45;103230.94;5050608;28;20827;-75
2022/03/23 11:24:23;;;;;;;22.90;20.55;;;;;;;27.71;18.99;103239.06;5050531;28;20178;-75
2022/03/23 11:26:50;;;;;;;22.17;19.92;;;;;;;27.55;19.15;103229.63;5051322;28;20691;-73
2022/03/23 11:29:17;;;;;;;22.50;20.08;;;;;;;27.06;18.66;103238.94;5051500;28;20209;-75
2022/03/23 11:31:45;;;;;;;22.70;20.40;;;;;;;26.61;19.62;103235.88;5049917;28;20186;-75
2022/03/23 11:34:12;;;;;;;24.35;19.85;;;;;;;26.61;20.37;103233.25;5050208;28;20177;-76